Luka Ilicic

Recruteur en chef - Koper
20 Févr 2028
Dimanche
Processus

Personnalité

Adaptabilité (16) Ambition (13) Controverse (5) Loyauté (4) Pression (3) Professionnalisme (6) Sportivité (9) Tempérament (1)

Profil

Style d'entraînement Démocratique
Diplôme Continental Pro
Détermination 6
Gestion des joueurs 9
Motivation 10
Discipline 10
Satisfaction professionnelle
56%
Fatigue
0%
Rôle Recruteur en chef
Salaire 19.1K p/s
Contrat 14.03.2030

Performance

Comportement Bon
Efficacité de l'entraînement
18%
Développement des joueurs
15%
Prévention des blessures
20%
Mise en place tactique
25%

Événements récents

A participé à une réunion de recrutement maintenant
A recommandé une cible de transfert maintenant
A recommandé une cible de transfert maintenant
A recommandé une cible de transfert maintenant
A recommandé une cible de transfert maintenant
A recommandé une cible de transfert 7j
A participé à une réunion de recrutement 7j
A participé à une réunion de recrutement 7j

Suivi en cours

86
Joueur Club Statut Capacité Confiance Observé Dernière observation Dernier vote
Dominik Iskrić NK Krka Rapport prêt 94 / 93 76% 1 31.01.2028 -
Ramiro Hernandes Belgrano Actif 128 / 140 40% 1 10.01.2028 -
Manuel Duarte Barracas Central Actif 131 / 133 40% 1 10.01.2028 -
Juan Yangali San Telmo Actif 122 / 120 40% 1 10.01.2028 -
Ezekiel Edidiong Enyimba Actif 93 / 93 40% 6 01.01.2028 -
John Njuguna Nairobi United Actif 78 / 92 40% 4 01.01.2028 -
Carlos Torres Orenburg Actif 109 / 112 40% 2 01.01.2028 -
Nenad Damjanoski Koper Négociation 95 / 107 71% 1 01.01.2028 -
Ivan Belikov Fakel Négociation 99 / 105 67% 1 01.01.2028 -
Vitaly Bondarev Akron Négociation 94 / 104 66% 1 01.01.2028 -
Luis Moreno Caracas Rapport prêt 107 / 110 66% 1 01.01.2028 -
Andy Polar Saburtalo Actif 107 / 107 66% 1 01.01.2028 Approuver
Sam Nombe Milton Keynes Dons Actif 124 / 137 40% 1 30.12.2027 -
Aaron Collins Milton Keynes Dons Actif 122 / 100 40% 1 30.12.2027 -
Brian Mansilla Akhmat Grozny Actif 120 / 136 40% 2 28.12.2027 -
Kevin Méndez Dinamo Tbilisi Actif 105 / 106 40% 2 28.12.2027 -
Alexander Díaz Deportivo Riestra Actif 115 / 128 40% 6 27.12.2027 -
Luca Martínez Dupuy Godoy Cruz Actif 128 / 127 40% 5 27.12.2027 -
Luciano Gondou CSKA Moscow Actif 138 / 123 40% 2 27.12.2027 Plus d'infos
Misael Sosa Godoy Cruz Actif 109 / 128 40% 6 26.12.2027 -
Agustín Módica Gimnasia y Esgrima Actif 117 / 110 40% 3 26.12.2027 -
Ramiro Ruiz Rodríguez Atlético Tucumán Actif 120 / 103 40% 4 26.12.2027 -
Lucas Carrizo Plaza Colonia Actif 120 / 120 40% 2 25.12.2027 -
Santiago Sala Güemes Actif 109 / 97 40% 3 25.12.2027 -
Ally Salum Omar Kariobangi Sharks Actif 71 / 75 40% 1 24.12.2027 -
Chukwudi Okoro Nasarawa United Actif 92 / 77 40% 1 24.12.2027 -
Patrick Otieno KCB Actif 71 / 88 40% 1 24.12.2027 -
Juan Turletti Gimnasia y Tiro Actif 101 / 87 40% 7 21.12.2027 -
Marco Miori Alvarado Actif 117 / 127 40% 2 21.12.2027 -
Gafar Saka Plateau United Actif 84 / 76 40% 3 21.12.2027 -
Gustavo Viera Cerro Largo Actif 98 / 114 40% 2 21.12.2027 -
Milan Tučić ND Gorica Actif 116 / 105 40% 1 21.12.2027 -
Nicolás Cordero Aldosivi Actif 120 / 105 40% 3 17.12.2027 -
Jayden Wareham Barnet Actif 114 / 128 40% 1 17.12.2027 -
Juan Rocca Gimnasia y Tiro Actif 117 / 107 40% 1 16.12.2027 -
Sebastián Cocimano Nueva Chicago Actif 111 / 129 40% 3 15.12.2027 -
Esteban da Silva Racing Actif 123 / 121 40% 3 14.12.2027 -
Santiago Apa All Boys Actif 116 / 92 40% 3 14.12.2027 -
Tomás Fernández Aldosivi Actif 119 / 117 40% 1 13.12.2027 -
Antony Alonso Deportivo Riestra Actif 127 / 104 40% 2 11.12.2027 -
Irakli Kvilitaia Tskhinvali Actif 106 / 91 40% 1 11.12.2027 Plus d'infos
Augusto Berrondo Tristán Suárez Actif 120 / 88 40% 4 10.12.2027 -
Genaro Rossi San Martín SJ Actif 107 / 109 40% 3 10.12.2027 -
Carlos Fernández Oviedo Actif 123 / 126 40% 1 10.12.2027 -
Gianluca Pugliese Güemes Actif 111 / 100 40% 2 09.12.2027 -
Erik Botheim Talleres Actif 121 / 129 40% 1 08.12.2027 -
Adama Traoré Bidco United Actif 102 / 76 40% 5 22.11.2027 -
Josephat Lopaga Kakamega Homeboyz Actif 91 / 95 40% 2 20.11.2027 -
Tosin Olawale El-Kanemi Warriors Actif 84 / 90 40% 2 18.11.2027 -
Elmer Arunta Bendel Insurance Actif 90 / 90 40% 5 17.11.2027 -
Brian Junior Olega Shabana Actif 68 / 66 40% 3 15.11.2027 -
Tio Cipot NK Maribor Actif 117 / 108 40% 1 15.11.2027 -
Julen Cordero Samtredia Actif 104 / 108 40% 2 14.11.2027 -
Hassan Beja AFC Leopards Actif 85 / 91 40% 2 08.11.2027 -
Samuel Ssenyonjo AFC Leopards Actif 97 / 70 40% 4 08.11.2027 -
Gustavo Rodriguez Valledupar Actif 103 / 88 40% 3 07.11.2027 -
Evgeniy Malashevich Dinamo Brest Actif 99 / 110 40% 1 07.11.2027 -
Luca Franco Arsenal Actif 116 / 120 40% 3 05.11.2027 -
Elías Ayala Madryn Actif 114 / 104 40% 2 03.11.2027 -
Erick Otieno Shabana Actif 83 / 58 40% 1 03.11.2027 -
Rodgers Kipkemoi APS Bomet Actif 68 / 58 40% 1 03.11.2027 -
Juan David Rueda Alianza Petrolera Actif 118 / 101 40% 1 30.10.2027 -
Samuel Ayanrinde Kenya Police Actif 91 / 101 40% 1 30.10.2027 -
Alfred Emoni Bandari Actif 81 / 75 40% 4 29.10.2027 -
Mateusz Bogusz Houston Dynamo Actif 137 / 105 40% 1 29.10.2027 -
Lucas Pedraza Defensores Unidos Actif 105 / 91 40% 2 27.10.2027 -
Cristian Rivas Bogota Actif 102 / 91 40% 1 25.10.2027 -
Joseph Atule Barau Actif 95 / 91 40% 2 21.10.2027 -
Jesús Amarilla Naftan Actif 98 / 105 40% 2 21.10.2027 -
Douglas Ochoko Sofapaka Actif 80 / 88 40% 2 20.10.2027 -
Benson Omalla Nairobi United Actif 91 / 97 40% 1 13.10.2027 -
Alvin Mangeni Kenya Police Actif 83 / 74 40% 1 02.10.2027 -
Yusuff Adewale Afrique Foot Elite Actif 81 / 78 40% 1 30.09.2027 -
Bashar Musa Lokomotivi Actif 91 / 72 40% 1 30.09.2027 -
Tyshick Mosengo Kenya Police Actif 81 / 82 40% 1 18.09.2027 -
Jesús Gamarra Baranovichi Actif 81 / 73 40% 1 18.09.2027 -
Peter Thiong'o Kakamega Homeboyz Actif 82 / 64 40% 1 15.09.2027 -
David Sakwa Bandari Actif 79 / 75 40% 1 10.09.2027 -
Eugenio Olivera Talleres Actif 98 / 80 40% 1 09.09.2027 -
Tilen Letonja NK Celje Actif 98 / 101 69% 1 12.07.2027 Approuver
Dmitry Tsypchenko Torpedo Moscow Actif 104 / 112 40% 1 03.06.2027 -
Marko Brest Olimpija Ljubljana Actif 116 / 117 66% 1 01.06.2027 Approuver
Pedro Lucas Olimpija Ljubljana Actif 107 / 120 69% 1 18.01.2027 Approuver
Nicolás Sumavil Platense Actif 128 / 121 40% 1 02.08.2026 -
Matías Dufour Sportivo Trinidense Actif 113 / 110 40% 1 02.08.2026 -
Joaquín Papaleo Gimnasia y Tiro Actif 119 / 116 40% 1 02.08.2026 -